Observation data for Memphis on 07/03/2020      Previous  Date  Next       Current Mesonet Observations  Soil Data  Daily Summary Page  Observations in Plain Language
KMES 030500Z 26002KT 27/16 A3001 RMK A01 T02740163  RH  053%=      5-min Rain = 0
KMES 030505Z 20001KT 27/16 A3001 RMK A01 T02730162  RH  053%=      5-min Rain = 0
KMES 030510Z 12002KT 27/16 A3001 RMK A01 T02720164  RH  054%=      5-min Rain = 0
KMES 030515Z 11004KT 27/17 A3001 RMK A01 T02710167  RH  055%=      5-min Rain = 0
KMES 030520Z 14004KT 27/17 A30 RMK A01 T02710166  RH  055%=      5-min Rain = 0
KMES 030525Z 15005KT 27/17 A30 RMK A01 T02720167  RH  055%=      5-min Rain = 0
KMES 030530Z 16004KT 27/17 A30 RMK A01 T02720168  RH  056%=      5-min Rain = 0
KMES 030535Z 18005KT 27/17 A2999 RMK A01 T02720168  RH  055%=      5-min Rain = 0
KMES 030540Z 20006KT 27/17 A2999 RMK A01 T02740168  RH  055%=      5-min Rain = 0
KMES 030545Z 20007KT 28/17 A2999 RMK A01 T02750169  RH  055%=      5-min Rain = 0
KMES 030550Z 16005KT 28/17 A2999 RMK A01 T02750169  RH  055%=      5-min Rain = 0
KMES 030555Z 15005KT 28/17 A2998 RMK A01 T02750170  RH  056%=      5-min Rain = 0
KMES 030600Z 16006KT 28/17 A2998 RMK A01 T02750172  RH  056%=      5-min Rain = 0
KMES 030605Z 19006G11KT 28/17 A2997 RMK A01 T02770173  RH  056%=      5-min Rain = 0
KMES 030610Z 21008KT 28/17 A2996 RMK A01 T02820174  RH  055%=      5-min Rain = 0
KMES 030615Z 22010KT 29/18 A2995 RMK A01 T02890181  RH  055%=      5-min Rain = 0
KMES 030620Z 19008KT 30/19 A2996 RMK A01 T02970187  RH  055%=      5-min Rain = 0
KMES 030625Z 10006KT 30/18 A2997 RMK A01 T02970184  RH  054%=      5-min Rain = 0
KMES 030630Z 10005KT 29/18 A2997 RMK A01 T02880180  RH  055%=      5-min Rain = 0
KMES 030635Z 10005KT 29/18 A2997 RMK A01 T02860180  RH  056%=      5-min Rain = 0
KMES 030640Z 11004KT 28/18 A2997 RMK A01 T02840181  RH  057%=      5-min Rain = 0
KMES 030645Z 10004KT 28/18 A2997 RMK A01 T02830181  RH  057%=      5-min Rain = 0
KMES 030650Z 10003KT 28/18 A2997 RMK A01 T02820181  RH  057%=      5-min Rain = 0
KMES 030655Z 11002KT 28/18 A2997 RMK A01 T02810181  RH  058%=      5-min Rain = 0
KMES 030700Z 12004KT 28/18 A2996 RMK A01 T02790181  RH  058%=      5-min Rain = 0
KMES 030705Z 14003KT 28/18 A2996 RMK A01 T02770181  RH  059%=      5-min Rain = 0
KMES 030710Z 15003KT 28/18 A2996 RMK A01 T02770180  RH  059%=      5-min Rain = 0
KMES 030715Z 19001KT 28/18 A2997 RMK A01 T02760181  RH  059%=      5-min Rain = 0
KMES 030720Z 22001KT 28/18 A2997 RMK A01 T02760182  RH  060%=      5-min Rain = 0
KMES 030725Z 16000KT 28/18 A2997 RMK A01 T02750182  RH  060%=      5-min Rain = 0
KMES 030730Z 14002KT 27/18 A2997 RMK A01 T02740183  RH  061%=      5-min Rain = 0
KMES 030735Z 15002KT 27/18 A2997 RMK A01 T02730183  RH  061%=      5-min Rain = 0
KMES 030740Z 17002KT 27/18 A2997 RMK A01 T02730183  RH  061%=      5-min Rain = 0
KMES 030745Z 16002KT 27/18 A2997 RMK A01 T02730184  RH  061%=      5-min Rain = 0
KMES 030750Z 14001KT 27/18 A2997 RMK A01 T02730183  RH  061%=      5-min Rain = 0
KMES 030755Z 09004KT 27/19 A2997 RMK A01 T02700186  RH  063%=      5-min Rain = 0
KMES 030800Z 13003KT 27/19 A2997 RMK A01 T02680185  RH  064%=      5-min Rain = 0
KMES 030805Z 15003KT 27/19 A2997 RMK A01 T02690186  RH  064%=      5-min Rain = 0
KMES 030810Z 16003KT 27/19 A2997 RMK A01 T02690185  RH  063%=      5-min Rain = 0
KMES 030815Z 15003KT 27/19 A2997 RMK A01 T02700185  RH  063%=      5-min Rain = 0
KMES 030820Z 16003KT 27/19 A2997 RMK A01 T02700185  RH  063%=      5-min Rain = 0
KMES 030825Z 13003KT 27/19 A2997 RMK A01 T02690185  RH  064%=      5-min Rain = 0
KMES 030830Z 09003KT 26/19 A2998 RMK A01 T02640186  RH  066%=      5-min Rain = 0
KMES 030835Z 08003KT 26/19 A2998 RMK A01 T02590186  RH  068%=      5-min Rain = 0
KMES 030840Z 08003KT 26/19 A2998 RMK A01 T02580186  RH  068%=      5-min Rain = 0
KMES 030845Z 07003KT 26/19 A2998 RMK A01 T02570185  RH  068%=      5-min Rain = 0
KMES 030850Z 09001KT 26/18 A2998 RMK A01 T02560184  RH  068%=      5-min Rain = 0
KMES 030855Z 09002KT 26/18 A2998 RMK A01 T02550184  RH  068%=      5-min Rain = 0
KMES 030900Z 06003KT 25/19 A2998 RMK A01 T02540185  RH  069%=      5-min Rain = 0
KMES 030905Z 04004KT 25/19 A2998 RMK A01 T02510185  RH  071%=      5-min Rain = 0
KMES 030910Z 05004KT 25/19 A2999 RMK A01 T02500187  RH  072%=      5-min Rain = 0
KMES 030915Z 06004KT 25/19 A2999 RMK A01 T02490188  RH  073%=      5-min Rain = 0
KMES 030920Z 07004KT 25/19 A2999 RMK A01 T02500188  RH  073%=      5-min Rain = 0
KMES 030925Z 07004KT 25/19 A2999 RMK A01 T02510189  RH  073%=      5-min Rain = 0
KMES 030930Z 07004KT 25/19 A2999 RMK A01 T02500190  RH  073%=      5-min Rain = 0
KMES 030935Z 09003KT 25/19 A2999 RMK A01 T02500190  RH  073%=      5-min Rain = 0
KMES 030940Z 06004KT 25/19 A2999 RMK A01 T02490190  RH  074%=      5-min Rain = 0
KMES 030945Z 07004KT 25/19 A2999 RMK A01 T02470190  RH  074%=      5-min Rain = 0
KMES 030950Z 07004KT 25/19 A2999 RMK A01 T02460190  RH  075%=      5-min Rain = 0
KMES 030955Z 06004KT 25/19 A2999 RMK A01 T02450190  RH  075%=      5-min Rain = 0
KMES 031000Z 06003KT 24/19 A2999 RMK A01 T02440191  RH  076%=      5-min Rain = 0
KMES 031005Z 07003KT 24/19 A30 RMK A01 T02440191  RH  076%=      5-min Rain = 0
KMES 031010Z 06003KT 24/19 A30 RMK A01 T02430191  RH  077%=      5-min Rain = 0
KMES 031015Z 06004KT 24/19 A30 RMK A01 T02420191  RH  077%=      5-min Rain = 0
KMES 031020Z 06003KT 24/19 A3001 RMK A01 T02410191  RH  078%=      5-min Rain = 0
KMES 031025Z 07004KT 24/19 A3001 RMK A01 T02400192  RH  078%=      5-min Rain = 0
KMES 031030Z 07004KT 24/19 A3001 RMK A01 T02400193  RH  079%=      5-min Rain = 0
KMES 031035Z 07005KT 24/19 A3001 RMK A01 T02400193  RH  080%=      5-min Rain = 0
KMES 031040Z 07005KT 24/19 A3001 RMK A01 T02390194  RH  080%=      5-min Rain = 0
KMES 031045Z 07005KT 24/20 A3001 RMK A01 T02400195  RH  080%=      5-min Rain = 0
KMES 031050Z 08005KT 24/19 A3002 RMK A01 T02400194  RH  080%=      5-min Rain = 0
KMES 031055Z 08005KT 24/19 A3002 RMK A01 T02400194  RH  080%=      5-min Rain = 0
KMES 031100Z 09005KT 24/19 A3001 RMK A01 T02400193  RH  079%=      5-min Rain = 0
KMES 031105Z 09005KT 24/19 A3002 RMK A01 T02400193  RH  079%=      5-min Rain = 0
KMES 031110Z 09006KT 24/19 A3001 RMK A01 T02390192  RH  079%=      5-min Rain = 0
KMES 031115Z 09005KT 24/19 A3001 RMK A01 T02380191  RH  079%=      5-min Rain = 0
KMES 031120Z 10005KT 24/19 A3002 RMK A01 T02370190  RH  079%=      5-min Rain = 0
KMES 031125Z 10004KT 24/19 A3002 RMK A01 T02360190  RH  080%=      5-min Rain = 0
KMES 031130Z 10004KT 24/19 A3002 RMK A01 T02350189  RH  080%=      5-min Rain = 0
KMES 031135Z 10004KT 23/19 A3001 RMK A01 T02330189  RH  081%=      5-min Rain = 0
KMES 031140Z 11003KT 23/19 A3001 RMK A01 T02320189  RH  081%=      5-min Rain = 0
KMES 031145Z 13003KT 23/19 A3001 RMK A01 T02310188  RH  081%=      5-min Rain = 0
KMES 031150Z 13002KT 23/19 A3001 RMK A01 T02300188  RH  081%=      5-min Rain = 0
KMES 031155Z 12001KT 23/19 A3002 RMK A01 T02300188  RH  082%=      5-min Rain = 0
KMES 031200Z 09001KT 23/19 A3002 RMK A01 T02300188  RH  082%=      5-min Rain = 0
KMES 031205Z 05002KT 23/19 A3003 RMK A01 T02300189  RH  082%=      5-min Rain = 0
KMES 031210Z 04003KT 23/19 A3003 RMK A01 T02300189  RH  082%=      5-min Rain = 0
KMES 031215Z 06002KT 23/19 A3003 RMK A01 T02300190  RH  082%=      5-min Rain = 0
KMES 031220Z 07002KT 23/19 A3003 RMK A01 T02320190  RH  082%=      5-min Rain = 0
KMES 031225Z 08002KT 23/19 A3003 RMK A01 T02330190  RH  081%=      5-min Rain = 0
KMES 031230Z 09002KT 24/19 A3003 RMK A01 T02350192  RH  081%=      5-min Rain = 0
KMES 031235Z 10003KT 24/19 A3003 RMK A01 T02360192  RH  081%=      5-min Rain = 0
KMES 031240Z 12004KT 24/19 A3003 RMK A01 T02370192  RH  080%=      5-min Rain = 0
KMES 031245Z 12005KT 24/19 A3003 RMK A01 T02390191  RH  079%=      5-min Rain = 0
KMES 031250Z 12006KT 24/19 A3004 RMK A01 T02420191  RH  077%=      5-min Rain = 0
KMES 031255Z 12005KT 24/19 A3004 RMK A01 T02440191  RH  076%=      5-min Rain = 0
KMES 031300Z 10004KT 25/19 A3004 RMK A01 T02460191  RH  076%=      5-min Rain = 0
KMES 031305Z 09003KT 25/19 A3004 RMK A01 T02470192  RH  076%=      5-min Rain = 0
KMES 031310Z 12004KT 25/19 A3004 RMK A01 T02490192  RH  075%=      5-min Rain = 0
KMES 031315Z 12004KT 25/19 A3004 RMK A01 T02500193  RH  075%=      5-min Rain = 0
KMES 031320Z 14006KT 25/19 A3004 RMK A01 T02530192  RH  073%=      5-min Rain = 0
KMES 031325Z 12005KT 25/19 A3004 RMK A01 T02540193  RH  073%=      5-min Rain = 0
KMES 031330Z 11004KT 26/19 A3004 RMK A01 T02560193  RH  072%=      5-min Rain = 0
KMES 031335Z 11004KT 26/19 A3004 RMK A01 T02570193  RH  072%=      5-min Rain = 0
KMES 031340Z 10003KT 26/20 A3005 RMK A01 T02600195  RH  071%=      5-min Rain = 0
KMES 031345Z 09004KT 26/20 A3005 RMK A01 T02620195  RH  070%=      5-min Rain = 0
KMES 031350Z 09003KT 26/20 A3005 RMK A01 T02640195  RH  070%=      5-min Rain = 0
KMES 031355Z 08004KT 27/20 A3005 RMK A01 T02650195  RH  069%=      5-min Rain = 0
KMES 031400Z 09005KT 27/20 A3006 RMK A01 T02650195  RH  069%=      5-min Rain = 0
KMES 031405Z 07005KT 27/20 A3006 RMK A01 T02670196  RH  069%=      5-min Rain = 0
KMES 031410Z 07006KT 27/20 A3006 RMK A01 T02700196  RH  068%=      5-min Rain = 0
KMES 031415Z 10005KT 27/20 A3006 RMK A01 T02710197  RH  068%=      5-min Rain = 0
KMES 031420Z 08005KT 27/20 A3006 RMK A01 T02710197  RH  067%=      5-min Rain = 0
KMES 031425Z 08004G9KT 27/20 A3006 RMK A01 T02740198  RH  067%=      5-min Rain = 0
KMES 031430Z 08006KT 28/20 A3006 RMK A01 T02750197  RH  066%=      5-min Rain = 0
KMES 031435Z 08005KT 28/20 A3006 RMK A01 T02750196  RH  066%=      5-min Rain = 0
KMES 031440Z 10005KT 28/20 A3006 RMK A01 T02760196  RH  065%=      5-min Rain = 0
KMES 031445Z 09004KT 28/20 A3006 RMK A01 T02790196  RH  065%=      5-min Rain = 0
KMES 031450Z 08005KT 28/20 A3006 RMK A01 T02800195  RH  063%=      5-min Rain = 0
KMES 031455Z 08006KT 28/19 A3006 RMK A01 T02810193  RH  062%=      5-min Rain = 0
KMES 031500Z 09004KT 28/19 A3006 RMK A01 T02840192  RH  061%=      5-min Rain = 0
KMES 031505Z 11004KT 29/19 A3006 RMK A01 T02870194  RH  061%=      5-min Rain = 0
KMES 031510Z 10005KT 29/19 A3007 RMK A01 T02910193  RH  059%=      5-min Rain = 0
KMES 031515Z 09004KT 29/19 A3007 RMK A01 T02930192  RH  058%=      5-min Rain = 0
KMES 031520Z 13006KT 29/19 A3007 RMK A01 T02920191  RH  058%=      5-min Rain = 0
KMES 031525Z 11004KT 29/19 A3006 RMK A01 T02910190  RH  057%=      5-min Rain = 0
KMES 031530Z 10005KT 29/19 A3006 RMK A01 T02920190  RH  057%=      5-min Rain = 0
KMES 031535Z 08003KT 29/19 A3006 RMK A01 T02940189  RH  056%=      5-min Rain = 0
KMES 031540Z 11004KT 30/19 A3006 RMK A01 T02970192  RH  056%=      5-min Rain = 0
KMES 031545Z 13004KT 30/19 A3006 RMK A01 T02970189  RH  055%=      5-min Rain = 0
KMES 031550Z 12003KT 30/19 A3006 RMK A01 T02990191  RH  055%=      5-min Rain = 0
KMES 031555Z 14003KT 30/19 A3006 RMK A01 T03000190  RH  055%=      5-min Rain = 0
KMES 031600Z 12002KT 30/19 A3006 RMK A01 T03030191  RH  054%=      5-min Rain = 0
KMES 031605Z 11004KT 31/19 A3006 RMK A01 T03070187  RH  052%=      5-min Rain = 0
KMES 031610Z 10002KT 31/19 A3006 RMK A01 T03070186  RH  051%=      5-min Rain = 0
KMES 031615Z 13005KT 31/18 A3006 RMK A01 T03090184  RH  050%=      5-min Rain = 0
KMES 031620Z 14004KT 31/18 A3006 RMK A01 T03110179  RH  048%=      5-min Rain = 0
KMES 031625Z 14002KT 31/18 A3006 RMK A01 T03140177  RH  047%=      5-min Rain = 0
KMES 031630Z 14005KT 32/18 A3006 RMK A01 T03160181  RH  047%=      5-min Rain = 0
KMES 031635Z 13003KT 32/18 A3006 RMK A01 T03150180  RH  047%=      5-min Rain = 0
KMES 031640Z 11004KT 32/18 A3005 RMK A01 T03200181  RH  046%=      5-min Rain = 0
KMES 031645Z 10004KT 32/18 A3005 RMK A01 T03190178  RH  045%=      5-min Rain = 0
KMES 031650Z 12003KT 32/18 A3005 RMK A01 T03220177  RH  044%=      5-min Rain = 0
KMES 031655Z 12004KT 33/18 A3005 RMK A01 T03250177  RH  044%=      5-min Rain = 0
KMES 031700Z 09002G7KT 33/17 A3005 RMK A01 T03290173  RH  041%=      5-min Rain = 0
KMES 031705Z 07003KT 33/17 A3005 RMK A01 T03310169  RH  040%=      5-min Rain = 0
KMES 031710Z 12005KT 33/17 A3005 RMK A01 T03300169  RH  040%=      5-min Rain = 0
KMES 031715Z 07003KT 33/17 A3005 RMK A01 T03310170  RH  040%=      5-min Rain = 0
KMES 031720Z 14004KT 33/17 A3005 RMK A01 T03320166  RH  039%=      5-min Rain = 0
KMES 031725Z 15005KT 33/17 A3005 RMK A01 T03330170  RH  040%=      5-min Rain = 0
KMES 031730Z 12004KT 33/17 A3004 RMK A01 T03340166  RH  039%=      5-min Rain = 0
KMES 031735Z 17003KT 34/16 A3004 RMK A01 T03350160  RH  037%=      5-min Rain = 0
KMES 031740Z 14004KT 34/15 A3004 RMK A01 T03380153  RH  035%=      5-min Rain = 0
KMES 031745Z 23003KT 34/16 A3004 RMK A01 T03360155  RH  035%=      5-min Rain = 0
KMES 031750Z 32003KT 34/15 A3004 RMK A01 T03350154  RH  035%=      5-min Rain = 0
KMES 031755Z 10002KT 34/15 A3004 RMK A01 T03390154  RH  035%=      5-min Rain = 0
KMES 031800Z 15005KT 35/15 A3004 RMK A01 T03450154  RH  034%=      5-min Rain = 0
KMES 031805Z 20004KT 34/16 A3004 RMK A01 T03440156  RH  034%=      5-min Rain = 0
KMES 031810Z 18002KT 34/15 A3004 RMK A01 T03420152  RH  034%=      5-min Rain = 0
KMES 031815Z 08003KT 34/15 A3004 RMK A01 T03430150  RH  033%=      5-min Rain = 0
KMES 031820Z 14002G7KT 35/15 A3004 RMK A01 T03450150  RH  033%=      5-min Rain = 0
KMES 031825Z 07004KT 35/15 A3003 RMK A01 T03480145  RH  031%=      5-min Rain = 0
KMES 031830Z 13003KT 35/15 A3003 RMK A01 T03490149  RH  032%=      5-min Rain = 0
KMES 031835Z 16002KT 35/15 A3003 RMK A01 T03500150  RH  032%=      5-min Rain = 0
KMES 031840Z 22003KT 35/15 A3003 RMK A01 T03480151  RH  032%=      5-min Rain = 0
KMES 031845Z 10004KT 35/15 A3003 RMK A01 T03490146  RH  031%=      5-min Rain = 0
KMES 031850Z 13005G10KT 36/14 A3003 RMK A01 T03550140  RH  029%=      5-min Rain = 0
KMES 031855Z 16006KT 36/14 A3003 RMK A01 T03580135  RH  027%=      5-min Rain = 0
KMES 031900Z 17004G9KT 36/14 A3003 RMK A01 T03560135  RH  028%=      5-min Rain = 0
KMES 031905Z 19005G11KT 36/13 A3003 RMK A01 T03580132  RH  027%=      5-min Rain = 0
KMES 031910Z 16004KT 36/13 A3003 RMK A01 T03570132  RH  027%=      5-min Rain = 0
KMES 031915Z 27003KT 36/13 A3002 RMK A01 T03570134  RH  027%=      5-min Rain = 0
KMES 031920Z 17005G13KT 36/13 A3002 RMK A01 T03580134  RH  027%=      5-min Rain = 0
KMES 031925Z 15008G13KT 36/14 A3002 RMK A01 T03620136  RH  027%=      5-min Rain = 0
KMES 031930Z 14006G11KT 36/14 A3002 RMK A01 T03610137  RH  027%=      5-min Rain = 0
KMES 031935Z 10003KT 36/14 A3002 RMK A01 T03600136  RH  027%=      5-min Rain = 0
KMES 031940Z 06003G9KT 36/14 A3001 RMK A01 T03630138  RH  027%=      5-min Rain = 0
KMES 031945Z 07007KT 37/14 A3001 RMK A01 T03650138  RH  027%=      5-min Rain = 0
KMES 031950Z 11005G11KT 37/14 A3001 RMK A01 T03650140  RH  027%=      5-min Rain = 0
KMES 031955Z 16008KT 37/14 A3001 RMK A01 T03660140  RH  027%=      5-min Rain = 0
KMES 032000Z 15005KT 36/14 A3001 RMK A01 T03630138  RH  027%=      5-min Rain = 0
KMES 032005Z 20001KT 36/14 A3001 RMK A01 T03610137  RH  027%=      5-min Rain = 0
KMES 032010Z 13008G15KT 36/14 A3001 RMK A01 T03640138  RH  027%=      5-min Rain = 0
KMES 032015Z 15009G14KT 37/14 A30 RMK A01 T03650138  RH  027%=      5-min Rain = 0
KMES 032020Z 13005G11KT 37/14 A30 RMK A01 T03660141  RH  027%=      5-min Rain = 0
KMES 032025Z 11005KT 37/14 A30 RMK A01 T03690139  RH  027%=      5-min Rain = 0
KMES 032030Z 10006KT 37/14 A30 RMK A01 T03670138  RH  026%=      5-min Rain = 0
KMES 032035Z 10004KT 37/14 A30 RMK A01 T03670136  RH  026%=      5-min Rain = 0
KMES 032040Z 08007KT 36/14 A30 RMK A01 T03640137  RH  027%=      5-min Rain = 0
KMES 032045Z 09006KT 36/14 A30 RMK A01 T03560137  RH  028%=      5-min Rain = 0
KMES 032050Z 06007KT 36/14 A2999 RMK A01 T03560135  RH  028%=      5-min Rain = 0
KMES 032055Z 06005KT 36/14 A2999 RMK A01 T03630137  RH  027%=      5-min Rain = 0
KMES 032100Z 07004G10KT 37/14 A2999 RMK A01 T03680140  RH  027%=      5-min Rain = 0
KMES 032105Z 13006G11KT 37/14 A2999 RMK A01 T03700135  RH  026%=      5-min Rain = 0
KMES 032110Z 11005KT 37/14 A2999 RMK A01 T03690136  RH  026%=      5-min Rain = 0
KMES 032115Z 16005KT 37/14 A2999 RMK A01 T03690135  RH  026%=      5-min Rain = 0
KMES 032120Z 11004KT 37/14 A2998 RMK A01 T03700137  RH  026%=      5-min Rain = 0
KMES 032125Z 08006KT 37/14 A2998 RMK A01 T03740136  RH  025%=      5-min Rain = 0
KMES 032130Z 06006KT 37/13 A2998 RMK A01 T03730133  RH  025%=      5-min Rain = 0
KMES 032135Z 06005KT 37/13 A2997 RMK A01 T03720132  RH  025%=      5-min Rain = 0
KMES 032140Z 10005G11KT 37/14 A2997 RMK A01 T03710136  RH  026%=      5-min Rain = 0
KMES 032145Z 13008G13KT 37/14 A2997 RMK A01 T03720136  RH  026%=      5-min Rain = 0
KMES 032150Z 12008KT 37/14 A2997 RMK A01 T03720135  RH  026%=      5-min Rain = 0
KMES 032155Z 12004KT 37/13 A2997 RMK A01 T03710133  RH  025%=      5-min Rain = 0
KMES 032200Z 13008G13KT 37/13 A2997 RMK A01 T03700134  RH  026%=      5-min Rain = 0
KMES 032205Z 08006KT 37/13 A2996 RMK A01 T03710131  RH  025%=      5-min Rain = 0
KMES 032210Z 06002KT 37/13 A2996 RMK A01 T03710129  RH  025%=      5-min Rain = 0
KMES 032215Z 15004KT 37/13 A2996 RMK A01 T03720133  RH  025%=      5-min Rain = 0
KMES 032220Z 15006KT 37/14 A2996 RMK A01 T03740135  RH  025%=      5-min Rain = 0
KMES 032225Z 13007KT 37/13 A2996 RMK A01 T03740133  RH  025%=      5-min Rain = 0
KMES 032230Z 12004G11KT 37/13 A2996 RMK A01 T03740130  RH  024%=      5-min Rain = 0
KMES 032235Z 12004KT 37/13 A2996 RMK A01 T03720126  RH  024%=      5-min Rain = 0
KMES 032240Z 12005KT 37/13 A2996 RMK A01 T03730130  RH  024%=      5-min Rain = 0
KMES 032245Z 12006KT 37/13 A2996 RMK A01 T03730128  RH  024%=      5-min Rain = 0
KMES 032250Z 14005KT 37/13 A2996 RMK A01 T03720125  RH  024%=      5-min Rain = 0
KMES 032255Z 16005KT 37/13 A2995 RMK A01 T03710126  RH  024%=      5-min Rain = 0
KMES 032300Z 13008KT 37/13 A2995 RMK A01 T03710128  RH  024%=      5-min Rain = 0
KMES 032305Z 12007KT 37/13 A2995 RMK A01 T03710127  RH  024%=      5-min Rain = 0
KMES 032310Z 14007G12KT 37/12 A2995 RMK A01 T03720123  RH  024%=      5-min Rain = 0
KMES 032315Z 12005KT 37/13 A2995 RMK A01 T03710129  RH  024%=      5-min Rain = 0
KMES 032320Z 14006KT 37/13 A2994 RMK A01 T03700129  RH  025%=      5-min Rain = 0
KMES 032325Z 11006G11KT 37/13 A2994 RMK A01 T03700129  RH  025%=      5-min Rain = 0
KMES 032330Z 10009G15KT 37/13 A2994 RMK A01 T03680131  RH  025%=      5-min Rain = 0
KMES 032335Z 10007G12KT 37/13 A2994 RMK A01 T03670130  RH  025%=      5-min Rain = 0
KMES 032340Z 13009G14KT 37/13 A2994 RMK A01 T03670131  RH  025%=      5-min Rain = 0
KMES 032345Z 13011KT 37/13 A2994 RMK A01 T03690132  RH  025%=      5-min Rain = 0
KMES 032350Z 13011G16KT 37/13 A2994 RMK A01 T03680133  RH  026%=      5-min Rain = 0
KMES 032355Z 14010KT 37/13 A2993 RMK A01 T03660134  RH  026%=      5-min Rain = 0
KMES 040000Z 13012KT 37/14 A2993 RMK A01 T03650135  RH  026%=      5-min Rain = 0
KMES 040005Z 14008KT 37/14 A2993 RMK A01 T03650136  RH  026%=      5-min Rain = 0
KMES 040010Z 13010KT 37/14 A2993 RMK A01 T03660136  RH  026%=      5-min Rain = 0
KMES 040015Z 11011KT 36/14 A2994 RMK A01 T03630135  RH  027%=      5-min Rain = 0
KMES 040020Z 12013KT 36/14 A2994 RMK A01 T03600136  RH  027%=      5-min Rain = 0
KMES 040025Z 13013KT 36/13 A2994 RMK A01 T03600134  RH  027%=      5-min Rain = 0
KMES 040030Z 15010KT 36/14 A2994 RMK A01 T03590136  RH  027%=      5-min Rain = 0
KMES 040035Z 14011G16KT 36/13 A2994 RMK A01 T03570134  RH  027%=      5-min Rain = 0
KMES 040040Z 13012KT 36/13 A2994 RMK A01 T03570133  RH  027%=      5-min Rain = 0
KMES 040045Z 14009G14KT 36/14 A2994 RMK A01 T03570135  RH  027%=      5-min Rain = 0
KMES 040050Z 15008G13KT 36/14 A2995 RMK A01 T03560136  RH  028%=      5-min Rain = 0
KMES 040055Z 16008KT 35/14 A2995 RMK A01 T03520135  RH  028%=      5-min Rain = 0
KMES 040100Z 16008KT 35/14 A2995 RMK A01 T03500136  RH  029%=      5-min Rain = 0
KMES 040105Z 16008G13KT 35/14 A2995 RMK A01 T03470137  RH  029%=      5-min Rain = 0
KMES 040110Z 16007KT 35/14 A2995 RMK A01 T03460137  RH  030%=      5-min Rain = 0
KMES 040115Z 16007KT 34/14 A2995 RMK A01 T03440137  RH  030%=      5-min Rain = 0
KMES 040120Z 16007KT 34/14 A2995 RMK A01 T03420139  RH  031%=      5-min Rain = 0
KMES 040125Z 15006KT 34/14 A2995 RMK A01 T03400139  RH  031%=      5-min Rain = 0
KMES 040130Z 15006KT 34/14 A2995 RMK A01 T03380139  RH  031%=      5-min Rain = 0
KMES 040135Z 15007KT 34/14 A2995 RMK A01 T03370138  RH  031%=      5-min Rain = 0
KMES 040140Z 15006KT 34/14 A2996 RMK A01 T03360138  RH  032%=      5-min Rain = 0
KMES 040145Z 15006KT 33/14 A2996 RMK A01 T03340138  RH  032%=      5-min Rain = 0
KMES 040150Z 15005KT 33/14 A2996 RMK A01 T03330138  RH  032%=      5-min Rain = 0
KMES 040155Z 15006KT 33/14 A2996 RMK A01 T03320139  RH  032%=      5-min Rain = 0
KMES 040200Z 15006KT 33/14 A2996 RMK A01 T03300138  RH  033%=      5-min Rain = 0
KMES 040205Z 15006KT 33/14 A2997 RMK A01 T03280138  RH  033%=      5-min Rain = 0
KMES 040210Z 15005KT 33/14 A2997 RMK A01 T03270139  RH  033%=      5-min Rain = 0
KMES 040215Z 15005KT 33/14 A2997 RMK A01 T03250139  RH  034%=      5-min Rain = 0
KMES 040220Z 15005KT 32/14 A2997 RMK A01 T03240140  RH  034%=      5-min Rain = 0
KMES 040225Z 15004KT 32/14 A2997 RMK A01 T03220142  RH  035%=      5-min Rain = 0
KMES 040230Z 15004KT 32/14 A2997 RMK A01 T03200143  RH  036%=      5-min Rain = 0
KMES 040235Z 14003KT 32/14 A2997 RMK A01 T03180144  RH  037%=      5-min Rain = 0
KMES 040240Z 14004KT 31/15 A2998 RMK A01 T03140146  RH  038%=      5-min Rain = 0
KMES 040245Z 14004KT 31/15 A2998 RMK A01 T03120146  RH  038%=      5-min Rain = 0
KMES 040250Z 15004KT 31/15 A2998 RMK A01 T03130147  RH  038%=      5-min Rain = 0
KMES 040255Z 14003KT 31/15 A2999 RMK A01 T03130148  RH  038%=      5-min Rain = 0
KMES 040300Z 13003KT 31/15 A2999 RMK A01 T03100150  RH  040%=      5-min Rain = 0
KMES 040305Z 14002KT 31/15 A2999 RMK A01 T03070150  RH  041%=      5-min Rain = 0
KMES 040310Z 15002KT 31/15 A2999 RMK A01 T03050151  RH  041%=      5-min Rain = 0
KMES 040315Z 14002KT 30/15 A30 RMK A01 T03040151  RH  041%=      5-min Rain = 0
KMES 040320Z 14003KT 30/15 A30 RMK A01 T03030152  RH  042%=      5-min Rain = 0
KMES 040325Z 13003KT 30/15 A30 RMK A01 T03010153  RH  043%=      5-min Rain = 0
KMES 040330Z 12003KT 30/16 A30 RMK A01 T02980155  RH  044%=      5-min Rain = 0
KMES 040335Z 11001KT 30/16 A3001 RMK A01 T02970155  RH  044%=      5-min Rain = 0
KMES 040340Z 12001KT 29/16 A3001 RMK A01 T02940155  RH  045%=      5-min Rain = 0
KMES 040345Z 08000KT 29/16 A3001 RMK A01 T02920155  RH  045%=      5-min Rain = 0
KMES 040350Z 05001KT 29/16 A3001 RMK A01 T02900157  RH  047%=      5-min Rain = 0
KMES 040355Z 03000KT 29/16 A3001 RMK A01 T02860158  RH  048%=      5-min Rain = 0
KMES 040400Z 12000KT 29/16 A3001 RMK A01 T02870158  RH  048%=      5-min Rain = 0
KMES 040405Z 14000KT 29/16 A3001 RMK A01 T02870157  RH  047%=      5-min Rain = 0
KMES 040410Z 00000KT 29/16 A3002 RMK A01 T02880158  RH  048%=      5-min Rain = 0
KMES 040415Z 00000KT 29/16 A3002 RMK A01 T02860159  RH  048%=      5-min Rain = 0
KMES 040420Z 05000KT 28/16 A3002 RMK A01 T02830160  RH  049%=      5-min Rain = 0
KMES 040425Z 10000KT 28/16 A3002 RMK A01 T02810160  RH  050%=      5-min Rain = 0
KMES 040430Z 08000KT 28/16 A3002 RMK A01 T02810159  RH  050%=      5-min Rain = 0
KMES 040435Z 09001KT 28/16 A3002 RMK A01 T02820161  RH  050%=      5-min Rain = 0
KMES 040440Z 10000KT 28/16 A3001 RMK A01 T02820162  RH  051%=      5-min Rain = 0
KMES 040445Z 15001KT 28/16 A3001 RMK A01 T02830161  RH  050%=      5-min Rain = 0
KMES 040450Z 14001KT 28/16 A3001 RMK A01 T02840164  RH  051%=      5-min Rain = 0
KMES 040455Z 10001KT 28/17 A3001 RMK A01 T02820165  RH  051%=      5-min Rain = 0

Page generated in 0.0097 seconds.